createdAt,value
2023-01-01T00:00:24.742Z,55.63
2023-01-01T00:02:57.912Z,52.97
2023-01-01T00:05:26.115Z,44.85
2023-01-01T00:07:59.517Z,35.60
2023-01-01T00:10:33.018Z,43.20
2023-01-01T00:13:01.573Z,86.30
2023-01-01T00:15:29.883Z,66.57
2023-01-01T00:17:59.365Z,53.65
2023-01-01T00:20:33.135Z,46.55
2023-01-01T00:23:03.238Z,37.05
2023-01-01T00:25:32.432Z,71.43
2023-01-01T00:28:00.662Z,127.53
2023-01-01T00:30:29.043Z,38.70
2023-01-01T00:32:57.145Z,239.07
2023-01-01T00:35:27.453Z,20.27
2023-01-01T00:37:58.727Z,25.27
2023-01-01T00:40:27.013Z,50.25
2023-01-01T00:42:55.205Z,41.22
2023-01-01T00:45:23.562Z,115.72
2023-01-01T00:47:55.209Z,71.43
2023-01-01T00:50:24.334Z,21.45
2023-01-01T00:52:53.842Z,51.80
2023-01-01T00:55:24.443Z,26.10
2023-01-01T00:57:52.554Z,14.52
2023-01-01T01:00:21.273Z,21.33
2023-01-01T01:02:49.305Z,25.60
2023-01-01T01:05:17.556Z,18.05
2023-01-01T01:07:45.678Z,12.43
2023-01-01T01:10:15.371Z,12.32
2023-01-01T01:12:43.420Z,14.50
2023-01-01T01:15:12.452Z,13.65
2023-01-01T01:17:40.544Z,16.92
2023-01-01T01:20:09.794Z,11.30
2023-01-01T01:22:38.662Z,13.65
2023-01-01T01:25:08.885Z,13.40
2023-01-01T01:27:38.356Z,21.55
2023-01-01T01:30:08.168Z,13.77
2023-01-01T01:32:36.309Z,17.33
2023-01-01T01:35:04.750Z,18.42
2023-01-01T01:37:32.940Z,11.82
2023-01-01T01:40:01.024Z,12.60
2023-01-01T01:42:29.264Z,13.07
2023-01-01T01:45:01.085Z,12.20
2023-01-01T01:47:34.856Z,15.80
2023-01-01T01:50:09.592Z,15.50
2023-01-01T01:52:40.683Z,14.45
2023-01-01T01:55:11.544Z,14.77
2023-01-01T01:57:43.412Z,14.13
2023-01-01T02:00:15.150Z,15.40
2023-01-01T02:02:49.436Z,16.13
2023-01-01T02:05:19.693Z,20.55
2023-01-01T02:07:50.797Z,14.07
2023-01-01T02:10:28.519Z,10.88
2023-01-01T02:12:59.007Z,14.85
2023-01-01T02:15:33.021Z,15.88
2023-01-01T02:18:04.288Z,14.20
2023-01-01T02:20:43.734Z,13.40
2023-01-01T02:23:39.262Z,14.98
2023-01-01T02:26:47.166Z,13.93
2023-01-01T02:29:31.974Z,20.83
2023-01-01T02:32:04.168Z,13.63
2023-01-01T02:34:36.886Z,18.75
2023-01-01T02:39:40.786Z,14.95
2023-01-01T02:42:09.612Z,16.83
2023-01-01T02:44:44.248Z,16.52
2023-01-01T02:47:15.164Z,13.38
2023-01-01T02:49:54.208Z,19.55
2023-01-01T02:52:43.446Z,17.58
2023-01-01T02:55:20.505Z,17.83
2023-01-01T02:57:56.797Z,19.13
2023-01-01T03:00:28.223Z,25.67
2023-01-01T03:03:19.039Z,21.13
2023-01-01T03:06:14.747Z,16.83
2023-01-01T03:08:50.247Z,20.48
2023-01-01T03:11:22.133Z,11.77
2023-01-01T03:13:55.874Z,13.97
2023-01-01T03:16:29.908Z,13.98
2023-01-01T03:19:19.158Z,14.90
2023-01-01T03:21:52.946Z,15.80
2023-01-01T03:24:27.052Z,18.23
2023-01-01T03:26:59.342Z,12.07
2023-01-01T03:29:32.740Z,18.50
2023-01-01T03:32:06.222Z,16.33
2023-01-01T03:34:39.718Z,13.23
2023-01-01T03:37:13.085Z,15.13
2023-01-01T03:39:46.642Z,37.05
2023-01-01T03:42:24.332Z,16.60
2023-01-01T03:44:57.929Z,15.40
2023-01-01T03:47:27.505Z,15.25
2023-01-01T03:49:56.600Z,13.30
2023-01-01T03:52:33.990Z,12.93
2023-01-01T03:55:09.426Z,15.82
2023-01-01T03:57:46.705Z,11.55
2023-01-01T04:00:17.961Z,20.40
2023-01-01T04:02:51.863Z,15.95
2023-01-01T04:05:21.122Z,18.92
2023-01-01T04:10:18.204Z,19.27
2023-01-01T04:12:48.869Z,12.93
2023-01-01T04:15:17.653Z,21.40
2023-01-01T04:17:47.313Z,13.18
2023-01-01T04:20:15.597Z,15.68
2023-01-01T04:22:43.948Z,13.23
2023-01-01T04:25:13.017Z,17.65
2023-01-01T04:27:41.844Z,13.60
2023-01-01T04:30:14.739Z,15.40
2023-01-01T04:32:43.012Z,14.82
2023-01-01T04:35:15.887Z,17.77
2023-01-01T04:37:45.726Z,14.25
2023-01-01T04:40:14.863Z,15.57
2023-01-01T04:42:45.300Z,16.98
2023-01-01T04:45:15.103Z,15.18
2023-01-01T04:47:44.559Z,15.38
2023-01-01T04:50:19.383Z,14.45
2023-01-01T04:52:51.236Z,13.68
2023-01-01T04:55:20.526Z,13.93
2023-01-01T04:57:48.624Z,17.15
2023-01-01T05:00:17.447Z,18.25
2023-01-01T05:02:50.217Z,17.25
2023-01-01T05:05:20.057Z,16.85
2023-01-01T05:07:48.130Z,11.65
2023-01-01T05:10:16.385Z,12.07
2023-01-01T05:12:44.539Z,9.48
2023-01-01T05:15:12.824Z,17.65
2023-01-01T05:17:40.965Z,13.90
2023-01-01T05:20:09.830Z,14.75
2023-01-01T05:22:39.270Z,8.80
2023-01-01T05:25:08.283Z,13.18
2023-01-01T05:27:36.817Z,16.02
2023-01-01T05:30:05.584Z,12.10
2023-01-01T05:32:33.638Z,21.73
2023-01-01T05:35:01.683Z,9.40
2023-01-01T05:37:29.747Z,11.88
2023-01-01T05:39:59.220Z,12.77
2023-01-01T05:42:27.337Z,10.05
2023-01-01T05:44:55.425Z,9.27
2023-01-01T05:47:24.350Z,10.55
2023-01-01T05:49:53.892Z,8.25
2023-01-01T05:52:26.483Z,10.57
2023-01-01T05:54:55.116Z,15.68
2023-01-01T05:57:26.844Z,12.43
2023-01-01T05:59:55.206Z,12.82
2023-01-01T06:02:23.358Z,10.57
2023-01-01T06:04:51.503Z,10.02
2023-01-01T06:07:22.578Z,9.65
2023-01-01T06:09:50.647Z,8.40
2023-01-01T06:12:18.726Z,8.60
2023-01-01T06:14:50.262Z,15.65
2023-01-01T06:17:18.336Z,11.38
2023-01-01T06:19:46.383Z,10.50
2023-01-01T06:22:14.432Z,14.82
2023-01-01T06:24:42.499Z,10.18
2023-01-01T06:27:10.635Z,11.82
2023-01-01T06:29:38.700Z,12.27
2023-01-01T06:32:10.468Z,9.10
2023-01-01T06:34:38.546Z,8.15
2023-01-01T06:37:07.258Z,12.15
2023-01-01T06:39:35.487Z,7.97
2023-01-01T06:42:03.613Z,9.05
2023-01-01T06:44:31.687Z,10.88
2023-01-01T06:46:59.822Z,10.75
2023-01-01T06:49:29.301Z,14.38
2023-01-01T06:52:00.011Z,7.78
2023-01-01T06:54:30.391Z,12.10
2023-01-01T06:56:58.422Z,11.20
2023-01-01T06:59:26.438Z,8.57
2023-01-01T07:01:54.674Z,8.73
2023-01-01T07:04:22.769Z,10.18
2023-01-01T07:06:52.243Z,12.80
2023-01-01T07:09:20.337Z,11.77
2023-01-01T07:11:48.428Z,12.00
2023-01-01T07:14:16.506Z,10.85
2023-01-01T07:16:44.600Z,11.70
2023-01-01T07:19:13.015Z,11.52
2023-01-01T07:21:44.434Z,8.15
2023-01-01T07:24:15.388Z,11.27
2023-01-01T07:26:43.639Z,9.63
2023-01-01T07:29:13.312Z,10.40
2023-01-01T07:31:43.623Z,11.35
2023-01-01T07:34:16.262Z,12.05
2023-01-01T07:36:44.516Z,10.85
2023-01-01T07:39:15.158Z,10.70
2023-01-01T07:41:43.189Z,13.13
2023-01-01T07:44:14.618Z,11.48
2023-01-01T07:46:42.833Z,10.77
2023-01-01T07:49:11.061Z,12.13
2023-01-01T07:51:39.061Z,10.38
2023-01-01T07:54:08.947Z,11.43
2023-01-01T07:56:38.409Z,10.88
2023-01-01T07:59:06.971Z,13.32
2023-01-01T08:01:37.756Z,16.02
2023-01-01T08:04:08.483Z,12.93
2023-01-01T08:06:36.646Z,11.13
2023-01-01T08:09:05.154Z,8.23
2023-01-01T08:11:33.397Z,13.80
2023-01-01T08:14:03.859Z,11.20
2023-01-01T08:16:32.086Z,12.98
2023-01-01T08:19:00.148Z,14.48
2023-01-01T08:21:28.278Z,13.30
2023-01-01T08:23:57.282Z,10.05
2023-01-01T08:26:30.463Z,12.57
2023-01-01T08:28:59.109Z,13.80
2023-01-01T08:31:28.617Z,13.00
2023-01-01T08:33:56.878Z,11.30
2023-01-01T08:36:25.180Z,12.77
2023-01-01T08:38:53.407Z,12.30
2023-01-01T08:41:21.467Z,11.60
2023-01-01T08:43:49.572Z,16.48
2023-01-01T08:46:17.881Z,12.40
2023-01-01T08:48:47.426Z,10.98
2023-01-01T08:51:15.522Z,14.98
2023-01-01T08:53:48.809Z,12.68
2023-01-01T08:56:20.303Z,14.48
2023-01-01T08:58:48.654Z,12.50
2023-01-01T09:01:21.605Z,10.27
2023-01-01T09:03:51.417Z,13.07
2023-01-01T09:06:19.507Z,14.88
2023-01-01T09:08:47.800Z,7.93
2023-01-01T09:11:24.856Z,13.55
2023-01-01T09:13:53.664Z,15.32
2023-01-01T09:16:22.747Z,9.38
2023-01-01T09:18:52.342Z,9.82
2023-01-01T09:21:20.404Z,9.25
2023-01-01T09:23:48.821Z,9.93
2023-01-01T09:26:18.006Z,10.23
2023-01-01T09:28:46.104Z,12.63
2023-01-01T09:31:14.187Z,11.73
2023-01-01T09:33:42.408Z,12.50
2023-01-01T09:36:16.387Z,12.63
2023-01-01T09:38:44.509Z,10.07
2023-01-01T09:41:23.816Z,10.15
2023-01-01T09:44:02.691Z,11.13
2023-01-01T09:46:32.109Z,8.07
2023-01-01T09:49:06.418Z,12.25
2023-01-01T09:51:45.232Z,9.25
2023-01-01T09:54:27.914Z,9.05
2023-01-01T09:56:59.585Z,9.10
2023-01-01T09:59:28.300Z,14.65
2023-01-01T10:02:04.799Z,7.72
2023-01-01T10:04:50.677Z,7.43
2023-01-01T10:07:28.911Z,16.42
2023-01-01T10:10:04.844Z,9.95
2023-01-01T10:12:41.578Z,8.75
2023-01-01T10:15:16.951Z,10.60
2023-01-01T10:17:47.476Z,11.77
2023-01-01T10:20:21.156Z,9.45
2023-01-01T10:22:54.547Z,9.45
2023-01-01T10:25:26.435Z,9.85
2023-01-01T10:27:59.929Z,4.97
2023-01-01T10:30:29.283Z,7.50
2023-01-01T10:32:58.705Z,8.10
2023-01-01T10:35:39.588Z,12.45
2023-01-01T10:38:09.295Z,10.65
2023-01-01T10:40:37.545Z,10.13
2023-01-01T10:43:07.644Z,9.65
2023-01-01T10:45:39.750Z,7.22
2023-01-01T10:48:19.647Z,11.30
2023-01-01T10:50:51.543Z,9.30
2023-01-01T10:53:28.265Z,8.70
2023-01-01T10:56:03.378Z,11.52
2023-01-01T10:58:40.287Z,11.88
2023-01-01T11:01:10.500Z,7.53
2023-01-01T11:03:40.318Z,14.35
2023-01-01T11:06:19.717Z,9.93
2023-01-01T11:08:52.411Z,7.82
2023-01-01T11:13:54.263Z,13.00
2023-01-01T11:16:22.907Z,12.93
2023-01-01T11:18:51.634Z,11.50
2023-01-01T11:21:25.082Z,7.82
2023-01-01T11:24:13.313Z,10.20
2023-01-01T11:26:41.456Z,11.75
2023-01-01T11:29:22.636Z,10.80
2023-01-01T11:31:50.901Z,7.28
2023-01-01T11:34:29.764Z,12.02
2023-01-01T11:37:29.420Z,10.30
2023-01-01T11:40:00.206Z,9.13
2023-01-01T11:42:29.821Z,9.60
2023-01-01T11:45:00.058Z,11.70
2023-01-01T11:47:31.126Z,11.30
2023-01-01T11:50:03.569Z,5.28
2023-01-01T11:52:38.644Z,8.48
2023-01-01T11:55:19.133Z,9.18
2023-01-01T11:57:58.185Z,9.13
2023-01-01T12:00:26.380Z,7.03
2023-01-01T12:03:00.682Z,13.45
2023-01-01T12:05:42.596Z,9.25
2023-01-01T12:08:14.102Z,7.13
2023-01-01T12:10:51.922Z,15.77
2023-01-01T12:13:26.728Z,8.63
2023-01-01T12:16:03.916Z,10.00
2023-01-01T12:18:40.565Z,10.07
2023-01-01T12:21:15.881Z,14.07
2023-01-01T12:23:45.537Z,6.78
2023-01-01T12:26:23.149Z,7.72
2023-01-01T12:29:11.662Z,10.13
2023-01-01T12:31:45.518Z,8.95
2023-01-01T12:34:20.563Z,9.48
2023-01-01T12:36:58.371Z,12.82
2023-01-01T12:40:22.767Z,8.40
2023-01-01T12:43:02.522Z,9.90
2023-01-01T12:46:12.551Z,11.43
2023-01-01T12:49:03.670Z,8.77
2023-01-01T12:51:41.495Z,13.52
2023-01-01T12:54:35.306Z,13.80
2023-01-01T12:57:11.415Z,11.45
2023-01-01T12:59:45.143Z,16.38
2023-01-01T13:02:18.103Z,6.38
2023-01-01T13:04:50.911Z,10.02
2023-01-01T13:07:27.894Z,8.85
2023-01-01T13:09:56.691Z,7.25
2023-01-01T13:12:26.369Z,6.47
2023-01-01T13:14:56.289Z,11.32
2023-01-01T13:17:26.842Z,14.10
2023-01-01T13:20:00.397Z,12.63
2023-01-01T13:22:42.167Z,10.48
2023-01-01T13:25:22.105Z,9.50
2023-01-01T13:28:13.388Z,14.73
2023-01-01T13:30:53.084Z,11.82
2023-01-01T13:33:29.448Z,13.45
2023-01-01T13:36:32.083Z,9.73
2023-01-01T13:39:00.659Z,12.57
2023-01-01T13:41:35.467Z,11.68
2023-01-01T13:44:22.583Z,12.73
2023-01-01T13:47:05.560Z,10.10
2023-01-01T13:49:54.629Z,9.55
2023-01-01T13:52:52.521Z,11.77
2023-01-01T13:55:58.929Z,11.07
2023-01-01T13:58:51.605Z,10.90
2023-01-01T14:01:37.878Z,9.65
2023-01-01T14:04:15.086Z,14.45
2023-01-01T14:06:50.361Z,11.25
2023-01-01T14:09:21.883Z,13.05
2023-01-01T14:11:50.307Z,10.98
2023-01-01T14:14:27.709Z,12.95
2023-01-01T14:16:58.649Z,12.18
2023-01-01T14:19:29.196Z,10.95
2023-01-01T14:21:58.195Z,10.43
2023-01-01T14:24:27.748Z,9.70
2023-01-01T14:26:56.453Z,16.98
2023-01-01T14:29:28.622Z,15.70
2023-01-01T14:32:01.033Z,18.45
2023-01-01T14:34:33.202Z,18.48
2023-01-01T14:37:03.439Z,14.90
2023-01-01T14:39:32.994Z,17.33
2023-01-01T14:42:04.385Z,15.32
2023-01-01T14:44:37.178Z,13.65
2023-01-01T14:49:38.879Z,15.38
2023-01-01T14:52:10.743Z,15.93
2023-01-01T14:54:43.433Z,11.53
2023-01-01T14:57:16.340Z,13.75
2023-01-01T14:59:48.015Z,20.98
2023-01-01T15:02:18.412Z,22.58
2023-01-01T15:04:48.148Z,15.00
2023-01-01T15:07:23.298Z,17.60
2023-01-01T15:09:52.327Z,23.85
2023-01-01T15:12:21.443Z,20.02
2023-01-01T15:14:51.239Z,21.35
2023-01-01T15:17:21.529Z,19.48
2023-01-01T15:20:04.683Z,18.83
2023-01-01T15:22:35.179Z,18.23
2023-01-01T15:25:04.893Z,20.00
2023-01-01T15:27:35.607Z,19.20
2023-01-01T15:30:13.306Z,17.35
2023-01-01T15:32:42.583Z,14.18
2023-01-01T15:35:29.279Z,18.40
2023-01-01T15:38:00.845Z,14.63
2023-01-01T15:40:35.306Z,19.13
2023-01-01T15:43:22.031Z,16.05
2023-01-01T15:45:58.734Z,15.45
2023-01-01T15:48:32.625Z,15.73
2023-01-01T15:51:15.029Z,18.17
2023-01-01T15:53:54.334Z,25.52
2023-01-01T15:56:26.364Z,17.70
2023-01-01T15:59:03.716Z,20.08
2023-01-01T16:01:38.530Z,20.17
2023-01-01T16:04:10.811Z,18.65
2023-01-01T16:06:46.094Z,19.45
2023-01-01T16:09:17.359Z,24.50
2023-01-01T16:11:51.835Z,32.03
2023-01-01T16:14:20.408Z,21.85
2023-01-01T16:16:52.478Z,22.70
2023-01-01T16:19:22.262Z,30.87
2023-01-01T16:21:52.013Z,36.72
2023-01-01T16:24:21.232Z,23.88
2023-01-01T16:26:50.161Z,39.00
2023-01-01T16:29:18.493Z,33.58
2023-01-01T16:31:49.151Z,39.53
2023-01-01T16:34:17.558Z,48.13
2023-01-01T16:36:46.978Z,40.83
2023-01-01T16:39:16.521Z,35.17
2023-01-01T16:41:45.705Z,27.88
2023-01-01T16:44:14.107Z,23.60
2023-01-01T16:46:42.334Z,39.30
2023-01-01T16:49:10.616Z,28.40
2023-01-01T16:51:43.408Z,33.78
2023-01-01T16:54:16.657Z,49.70
2023-01-01T16:56:44.855Z,30.20
2023-01-01T16:59:12.934Z,30.00
2023-01-01T17:01:41.213Z,35.53
2023-01-01T17:04:09.442Z,33.05
2023-01-01T17:06:39.093Z,25.92
2023-01-01T17:09:07.995Z,31.33
2023-01-01T17:11:39.263Z,48.50
2023-01-01T17:14:07.546Z,37.97
2023-01-01T17:16:39.546Z,34.53
2023-01-01T17:19:17.423Z,65.18
2023-01-01T17:21:47.999Z,89.80
2023-01-01T17:24:16.874Z,60.20
2023-01-01T17:26:46.675Z,59.70
2023-01-01T17:29:14.808Z,57.72
2023-01-01T17:31:43.885Z,53.65
2023-01-01T17:34:14.226Z,56.25
2023-01-01T17:36:43.425Z,44.30
2023-01-01T17:39:12.363Z,41.28
2023-01-01T17:41:40.929Z,44.58
2023-01-01T17:44:11.906Z,45.85
2023-01-01T17:46:40.726Z,36.03
2023-01-01T17:49:10.169Z,39.97
2023-01-01T17:51:39.313Z,47.10
2023-01-01T17:54:11.621Z,48.47
2023-01-01T17:56:39.851Z,50.90
2023-01-01T17:59:08.046Z,61.85
2023-01-01T18:01:37.695Z,61.67
2023-01-01T18:04:07.981Z,65.68
2023-01-01T18:06:42.138Z,69.35
2023-01-01T18:09:14.013Z,55.05
2023-01-01T18:11:43.066Z,52.95
2023-01-01T18:14:11.855Z,48.50
2023-01-01T18:16:42.418Z,48.15
2023-01-01T18:19:11.173Z,47.20
2023-01-01T18:21:39.326Z,41.50
2023-01-01T18:24:13.589Z,45.60
2023-01-01T18:26:42.123Z,40.10
2023-01-01T18:29:10.565Z,44.90
2023-01-01T18:31:38.939Z,50.63
2023-01-01T18:34:11.798Z,51.90
2023-01-01T18:39:15.936Z,48.08
2023-01-01T18:42:31.008Z,57.22
2023-01-01T18:45:14.353Z,50.10
2023-01-01T18:47:46.359Z,44.53
2023-01-01T18:50:23.700Z,48.65
2023-01-01T18:52:54.366Z,46.15
2023-01-01T18:55:27.025Z,35.80
2023-01-01T18:58:00.692Z,35.88
2023-01-01T19:00:31.323Z,34.92
2023-01-01T19:03:01.480Z,41.70
2023-01-01T19:05:33.339Z,35.72
2023-01-01T19:08:11.534Z,41.95
2023-01-01T19:10:41.171Z,33.40
2023-01-01T19:13:30.884Z,31.52
2023-01-01T19:16:03.649Z,27.27
2023-01-01T19:21:06.913Z,22.52
2023-01-01T19:23:37.688Z,23.73
2023-01-01T19:26:07.245Z,19.58
2023-01-01T19:28:38.950Z,19.52
2023-01-01T19:31:08.367Z,20.52
2023-01-01T19:33:42.820Z,27.27
2023-01-01T19:36:15.303Z,22.35
2023-01-01T19:38:44.105Z,18.58
2023-01-01T19:41:14.889Z,17.80
2023-01-01T19:43:43.095Z,17.98
2023-01-01T19:46:13.094Z,15.43
2023-01-01T19:48:41.364Z,17.58
2023-01-01T19:51:09.659Z,15.90
2023-01-01T19:53:39.600Z,18.50
2023-01-01T19:56:08.564Z,20.13
2023-01-01T19:58:36.773Z,26.90
2023-01-01T20:01:04.951Z,23.15
2023-01-01T20:03:53.544Z,23.30
2023-01-01T20:06:22.301Z,24.60
2023-01-01T20:08:54.958Z,26.13
2023-01-01T20:11:23.605Z,20.80
2023-01-01T20:13:51.701Z,19.77
2023-01-01T20:16:19.922Z,24.58
2023-01-01T20:18:54.943Z,17.65
2023-01-01T20:21:40.551Z,17.88
2023-01-01T20:24:10.975Z,18.13
2023-01-01T20:26:39.086Z,20.25
2023-01-01T20:29:22.480Z,17.40
2023-01-01T20:31:52.141Z,17.85
2023-01-01T20:34:20.596Z,24.20
2023-01-01T20:37:16.921Z,26.48
2023-01-01T20:39:46.564Z,18.83
2023-01-01T20:42:14.749Z,13.75
2023-01-01T20:44:44.120Z,15.88
2023-01-01T20:47:15.449Z,15.68
2023-01-01T20:49:43.951Z,12.23
2023-01-01T20:52:12.047Z,23.38
2023-01-01T20:54:40.267Z,18.70
2023-01-01T20:57:09.729Z,16.55
2023-01-01T20:59:38.677Z,15.40
2023-01-01T21:02:08.622Z,19.80
2023-01-01T21:04:38.721Z,16.52
2023-01-01T21:07:07.987Z,18.20
2023-01-01T21:09:36.179Z,22.85
2023-01-01T21:12:04.948Z,18.25
2023-01-01T21:14:34.761Z,24.25
2023-01-01T21:17:21.361Z,21.73
2023-01-01T21:19:50.688Z,18.17
2023-01-01T21:22:19.150Z,15.82
2023-01-01T21:24:51.826Z,18.40
2023-01-01T21:27:26.384Z,18.30
2023-01-01T21:29:59.751Z,25.88
2023-01-01T21:32:33.747Z,17.00
2023-01-01T21:35:02.284Z,15.07
2023-01-01T21:37:50.929Z,18.45
2023-01-01T21:40:38.406Z,18.27
2023-01-01T21:43:38.343Z,28.15
2023-01-01T21:46:46.928Z,18.35
2023-01-01T21:49:20.259Z,16.95
2023-01-01T21:51:52.820Z,23.20
2023-01-01T21:54:26.749Z,15.85
2023-01-01T21:56:58.208Z,18.85
2023-01-01T21:59:33.803Z,16.83
2023-01-01T22:02:38.600Z,15.25
2023-01-01T22:05:34.111Z,20.90
2023-01-01T22:08:20.336Z,19.48
2023-01-01T22:10:48.635Z,22.98
2023-01-01T22:13:19.068Z,14.23
2023-01-01T22:15:47.810Z,16.13
2023-01-01T22:18:22.802Z,16.23
2023-01-01T22:20:53.986Z,20.55
2023-01-01T22:23:29.748Z,16.13
2023-01-01T22:25:58.131Z,21.10
2023-01-01T22:28:28.223Z,19.27
2023-01-01T22:30:59.662Z,20.45
2023-01-01T22:33:32.666Z,25.95
2023-01-01T22:38:34.270Z,19.98
2023-01-01T22:41:02.668Z,19.50
2023-01-01T22:43:35.321Z,17.92
2023-01-01T22:46:13.025Z,16.05
2023-01-01T22:48:42.766Z,17.50
2023-01-01T22:51:20.861Z,19.67
2023-01-01T22:53:48.954Z,17.58
2023-01-01T22:56:17.511Z,16.50
2023-01-01T22:58:49.229Z,20.60
2023-01-01T23:01:21.361Z,18.75
2023-01-01T23:03:49.830Z,17.58
2023-01-01T23:06:19.869Z,22.90
2023-01-01T23:08:48.212Z,22.20
2023-01-01T23:11:16.454Z,17.85
2023-01-01T23:14:06.195Z,20.52
2023-01-01T23:16:37.172Z,18.05
2023-01-01T23:19:06.054Z,23.17
2023-01-01T23:21:36.941Z,18.20
2023-01-01T23:24:07.899Z,21.73
2023-01-01T23:26:36.088Z,21.02
2023-01-01T23:29:04.921Z,20.00
2023-01-01T23:31:35.709Z,18.73
2023-01-01T23:34:03.940Z,23.48
2023-01-01T23:36:32.399Z,14.60
2023-01-01T23:39:01.850Z,17.67
2023-01-01T23:41:29.936Z,14.23
2023-01-01T23:44:00.218Z,20.55
2023-01-01T23:46:28.424Z,19.98
2023-01-01T23:48:59.268Z,24.90
2023-01-01T23:51:27.918Z,17.38
2023-01-01T23:53:56.101Z,19.20
2023-01-01T23:56:25.699Z,21.00
2023-01-01T23:58:53.745Z,17.50
